Terminal Aerodrome Forecast
Issued by NWS

Home | Current Version | Previous Version | Text Only | Print | Product List | Glossary On
Versions: 1 2 3 4 5 6 7 8 9 10 11 12 13 14 15 16 17 18 19
000
FTUS43 KGRB 011100
TAFMTW
TAF
KMTW 011124Z 0112/0212 VRB03KT 4SM BR SKC
      TEMPO 0112/0113 2SM BR
     FM011300 27004KT P6SM SCT015
     FM011700 14007KT P6SM SCT040 SCT080 PROB30 0122/0202 3SM TSRA
      BKN035CB
     FM020200 VRB03KT P6SM SCT050
      TEMPO 0208/0212 1 1/2SM BR=

USA.gov is the U.S. government's official web portal to all federal, state and local government web resources and services.